Pagrindinis puslapis
METAR-TAF:

METAR-TAF

Oro uostai :

Foz do Iguasu, Parana, Brazilija

platuma: 25-31S, ilguma: 054-35W, Aukštis: 180 m

Dabartinis oras

Ataskaita buvo paskelbta 31 minutes, ne 07:00 UTC
Vėjas 5 kt iš Rytų/Pietryčių
Temperatūra 19°C
Drėgmė 100%
Slėgis 1008 hPa
Matomumas: 0250 m
rūkas

METAR: SBFI 240700Z 12005KT 0250 R32/0700 R14/1000 FG VV001 19/19 Q1008

Laikas: 04:31 (07:31 UTC)

Prognozė

Ataskaita buvo paskelbta 5 valandos ir 1 minutes, ne 02:30 UTC
Prognozė galioja nuo 24 metu 06 UTC su 25 metu 06 UTC
Vėjas 5 kt iš Pietų/Pietvakarių
Matomumas 10 km arba daugiau
nėra debesų žemiau 1500 m ir nėra kamuolinių lietaus debesų
Tikimybė 40%
nuo 24 metu 06 UTC su 24 metu 11 UTC
Matomumas: 2500 m
Mažai debesys ne aukštis 200 ft
Rūkas lopais, rūkana
Tapsmas
nuo 24 metu 20 UTC su 24 metu 22 UTC
Vėjas 5 kt iš Pietryčių

TAF: SBFI 240230Z 2406/2506 20005KT CAVOK TN18/2408Z TX28/2418Z PROB40 2406/2411 2500 BCFG BR FEW002 BECMG 2420/2422 14005KT RMK PDW

Orai ataskaitas ir orų prognozės (METAR, TAF).

turimą stotys yra geltonos ir raudonos taškus žemėlapyje.

Perkelti pele per norėdami pamatyti stoties vardą.

Tada spustelėkite, norėdami matyti oro stebėjimo ir prognozės.

Norėdami pakeisti žemėlapį: spustelėkite ant žalios mygtukų su juodo kryžiaus žemyn,; žalią mygtuką su brūkšneliu, jei norite nutolinti; arba žalių rodyklių gretimoms žemėlapius.


METAR-TAF: